Telgart, Slovakia

11:11 PM CEST on May 28, 2015 (GMT +0200)
IPREU0163 | | Change Station
CLOSE
Current Station
Personal Weather Station
Location: Svit, PRESOVSKY KRAJ
Elevation: 2379 ft
Nearby Weather Stations

Elev 2379 ft 49.06 °N, 20.21 °E | Updated 2 seconds ago

Partly Cloudy
Partly Cloudy
40.8 °F
Feels Like 39 °F
N
3.5
Wind Variable Wind from NW
Gusts 3.5 mph

Today
High -- | Low -- °F
--% Chance of Precip.
Yesterday
High -- | Low -- °F
Precip. -- in
4:43 AM 8:29 PM
Waxing Gibbous, 78% visible
Pressure 30.01 in
Visibility 6.2 miles
Clouds Few 4600 ft
Windchill 39 °F
Dew Point 35 °F
Humidity 81%
Rainfall 0.00 in
Snow Depth Not available.
UV 0 out of 12
Pollen Not available.
Air Quality Not available.
Flu Activity Not available.
METAR LZTT 282100Z 27005KT 9999 FEW046 05/03 Q1016

More Conditions Fewer Conditions

Pressure 30.01 in
Visibility 6.2 miles
Clouds Few 4600 ft
Windchill 39 °F
Dew Point 35 °F
Humidity 81%
Rainfall 0.00 in
Snow Depth Not available.
UV 0 out of 12
Pollen Not available.
Air Quality Not available.
Flu Activity Not available.
METAR LZTT 282100Z 27005KT 9999 FEW046 05/03 Q1016

More Conditions Fewer Conditions

10-Day Weather Forecast

Almanac

Astronomy

May. 28, 2015 Rise Set
Actual Time
Civil Twilight
Nautical Twilight
Astronomical Twilight
Moon
Length of Visible Light
Length of Day
Tomorrow will be .
, % of the Moon is Illuminated

Today's Extremes

Country Highs Country Lows

Community

WunderPhotos

Upload Photos

1,825,072 photos uploaded!

WunderBlogs® & News

Nearby

Air Quality

  Air Quality AQ Index Pollutant
Not available.

Snow Depth

Station Depth Elevation

Earthquake Activity

City Distance Mag. Time & Date
Minimum magnitude displayed is 2.5.

Coastal Water Temperatures

Place Temperature

Stations

Nearby Weather Stations

Station Location Temp. Windchill Dew Point Humidity Wind Precip. Elev Updated Type